Bremerton National Airport
KPWT : rendu visible

Aérodrome :











RETROUVEZ-NOUS SUR...

 
LOGIN :

S'inscrire | Disclaimer

   EN    FR    IT 

 









Légende :    VFR   VFR Marginal   IFR   IFR Intensif   IFR Très Intensif
Visi : 
Plafond : 
>= 8 km
>= 3000ft
5 à 8 km
1000 à 3000 ft
1500m à 5 km
500 à 1000 ft
800 à 1500m
200 à 500 ft
< 800m
< 200 ft
Symboles :   Orages  Brouillard  Fortes neiges  Fortes précipitations  Vent > 20 kt






- Altitude de l'aérodrome : 444 ft
- Code IATA : PWT


KPWT - Bremerton National

DERNIER METAR :
  • 201156Z AUTO 10004KT 10SM CLR 01/01 A3011 RMK AO2 SLP216 6//// 7//// T00110006 10050 21006 50002 FZRANO PNO $

METARs EXPIRÉS :
  • 201056Z AUTO 14004KT 10SM CLR 01/01 A3012 RMK AO2 SLP218 T00110006 FZRANO PNO $
  • 200956Z AUTO 00000KT 10SM CLR 01/00 A3012 RMK AO2 SLP216 T00110000 FZRANO PNO $

TAF KPWT
Valide du 20 à 12h jusqu'au 21 à 12h UTC


201130Z 2012/2112 VRB03KT P6SM SKC
TEMPO 2012/2015 1/4SM FG VV001
FM201900 03005KT P6SM SKC
FM210200 00000KT 6SM BR SKC
FM210400 00000KT 1/4SM FG SKC



MET'MAP, la Météo Aéronautique d'un coup d'oeil ! - Copyright ORBIFLY Décembre 2007 - Disclaimer

ORBIFLY MET'MAP TEAM :

Programmation & Développement : Alexandra Zaïnal
Conception & Développement : Baudouin d'Aumeries
Co-Programmation & Développement : Marc-Olivier Méhu
Soutien technique & logistique : Manuel Goepfert

Contact : metmap@orbifly.com




SOURCES & CREDITS :

   NOAA       Earth
Advisory